Terminal Aerodrome Forecast
Issued by NWS

Home | Current Version | Previous Version | Text Only | Print | Product List | Glossary On
Versions: 1 2 3 4 5 6 7 8 9 10 11 12 13 14 15 16 17 18 19 20 21
000
FTUS45 KTFX 311128
TAFHVR
TAF
KHVR 311128Z 3112/0112 31018G24KT P6SM SCT010 BKN040
      TEMPO 3112/3115 -RA BKN010
     FM311500 32015KT P6SM SCT020 BKN060
     FM312000 32010KT P6SM SCT120=

USA.gov is the U.S. government's official web portal to all federal, state and local government web resources and services.